createdAt,value
2023-01-26T00:04:04.704Z,60.97
2023-01-26T00:06:32.295Z,62.60
2023-01-26T00:08:59.825Z,57.58
2023-01-26T00:13:57.815Z,56.97
2023-01-26T00:16:25.863Z,53.22
2023-01-26T00:18:54.204Z,58.97
2023-01-26T00:21:23.213Z,59.80
2023-01-26T00:23:51.545Z,55.40
2023-01-26T00:26:24.888Z,56.35
2023-01-26T00:28:53.694Z,53.40
2023-01-26T00:31:25.339Z,52.67
2023-01-26T00:33:55.256Z,52.10
2023-01-26T00:36:22.865Z,56.20
2023-01-26T00:38:50.273Z,52.38
2023-01-26T00:41:36.191Z,52.42
2023-01-26T00:44:03.810Z,57.20
2023-01-26T00:46:31.385Z,48.88
2023-01-26T00:49:01.133Z,53.38
2023-01-26T00:51:28.811Z,48.25
2023-01-26T00:53:57.260Z,50.35
2023-01-26T00:56:28.162Z,49.80
2023-01-26T00:58:55.709Z,45.83
2023-01-26T01:01:23.203Z,47.42
2023-01-26T01:06:19.785Z,43.45
2023-01-26T01:08:47.576Z,42.28
2023-01-26T01:11:15.309Z,45.35
2023-01-26T01:13:43.193Z,44.22
2023-01-26T01:16:13.705Z,45.35
2023-01-26T01:18:41.356Z,41.60
2023-01-26T01:21:12.452Z,45.42
2023-01-26T01:23:40.599Z,44.95
2023-01-26T01:26:09.333Z,50.20
2023-01-26T01:28:37.064Z,42.85
2023-01-26T01:31:10.190Z,43.13
2023-01-26T01:33:38.855Z,44.38
2023-01-26T01:36:09.248Z,42.00
2023-01-26T01:38:37.019Z,45.53
2023-01-26T01:41:04.738Z,40.90
2023-01-26T01:43:32.341Z,38.35
2023-01-26T01:46:02.113Z,37.80
2023-01-26T01:48:37.091Z,40.47
2023-01-26T01:51:14.653Z,37.22
2023-01-26T01:53:46.774Z,32.25
2023-01-26T01:56:22.041Z,38.25
2023-01-26T01:58:54.158Z,36.28
2023-01-26T02:01:21.666Z,34.53
2023-01-26T02:06:25.128Z,34.22
2023-01-26T02:08:57.170Z,34.75
2023-01-26T02:11:33.988Z,34.65
2023-01-26T02:16:32.386Z,33.10
2023-01-26T02:19:00.099Z,33.95
2023-01-26T02:21:28.007Z,35.70
2023-01-26T02:24:25.483Z,32.97
2023-01-26T02:26:54.829Z,34.97
2023-01-26T02:29:23.421Z,35.90
2023-01-26T02:31:53.728Z,35.03
2023-01-26T02:34:21.912Z,37.58
2023-01-26T02:42:18.489Z,31.88
2023-01-26T02:44:46.353Z,33.50
2023-01-26T02:47:16.328Z,34.15
2023-01-26T02:49:53.046Z,37.10
2023-01-26T02:52:25.912Z,35.38
2023-01-26T02:55:19.724Z,33.13
2023-01-26T02:57:47.380Z,32.50
2023-01-26T03:02:48.284Z,32.40
2023-01-26T03:05:16.185Z,34.67
2023-01-26T03:07:43.792Z,32.95
2023-01-26T03:10:13.059Z,33.80
2023-01-26T03:12:40.846Z,34.95
2023-01-26T03:15:27.738Z,34.03
2023-01-26T03:18:25.982Z,34.45
2023-01-26T03:21:12.079Z,33.00
2023-01-26T03:23:58.354Z,36.08
2023-01-26T03:26:46.344Z,34.63
2023-01-26T03:29:14.323Z,36.08
2023-01-26T03:31:43.444Z,35.00
2023-01-26T03:34:11.464Z,34.42
2023-01-26T03:36:39.743Z,35.17
2023-01-26T03:39:32.693Z,36.92
2023-01-26T03:42:19.564Z,34.00
2023-01-26T03:45:05.616Z,35.15
2023-01-26T03:47:52.767Z,35.22
2023-01-26T03:50:39.492Z,37.30
2023-01-26T03:53:36.882Z,36.95
2023-01-26T03:56:41.362Z,34.08
2023-01-26T03:59:15.557Z,38.50
2023-01-26T04:02:05.342Z,37.42
2023-01-26T04:04:52.413Z,36.58
2023-01-26T04:07:42.487Z,40.60
2023-01-26T04:10:10.683Z,38.03
2023-01-26T04:12:38.334Z,35.15
2023-01-26T04:15:35.923Z,37.22
2023-01-26T04:18:27.011Z,41.20
2023-01-26T04:21:14.508Z,36.17
2023-01-26T04:23:44.513Z,37.17
2023-01-26T04:26:11.938Z,38.05
2023-01-26T04:28:39.596Z,35.47
2023-01-26T04:33:36.764Z,32.70
2023-01-26T04:36:06.052Z,36.72
2023-01-26T04:38:35.220Z,37.13
2023-01-26T04:41:02.817Z,34.70
2023-01-26T04:43:33.312Z,32.45
2023-01-26T04:46:07.300Z,29.98
2023-01-26T04:48:36.933Z,30.42
2023-01-26T04:51:12.297Z,30.75
2023-01-26T04:53:40.295Z,28.30
2023-01-26T04:56:13.604Z,19.98
2023-01-26T04:58:41.336Z,19.08
2023-01-26T05:01:09.027Z,14.57
2023-01-26T05:03:36.631Z,18.75
2023-01-26T05:06:04.844Z,16.95
2023-01-26T05:08:32.398Z,19.73
2023-01-26T05:13:42.730Z,16.70
2023-01-26T05:16:23.142Z,16.33
2023-01-26T05:18:54.169Z,14.52
2023-01-26T05:21:40.896Z,14.07
2023-01-26T05:24:09.267Z,15.20
2023-01-26T05:27:16.854Z,15.00
2023-01-26T05:29:45.335Z,13.27
2023-01-26T05:34:40.814Z,12.75
2023-01-26T05:37:08.298Z,14.90
2023-01-26T05:39:36.684Z,16.38
2023-01-26T05:42:06.197Z,15.10
2023-01-26T05:44:34.618Z,17.30
2023-01-26T05:47:11.084Z,15.63
2023-01-26T05:49:41.657Z,16.00
2023-01-26T05:52:12.170Z,17.65
2023-01-26T05:54:42.233Z,15.25
2023-01-26T05:57:10.580Z,16.73
2023-01-26T05:59:41.929Z,20.60
2023-01-26T06:02:11.984Z,20.98
2023-01-26T06:04:41.779Z,17.80
2023-01-26T06:07:10.398Z,12.57
2023-01-26T06:09:43.376Z,17.75
2023-01-26T06:12:21.377Z,18.50
2023-01-26T06:14:58.738Z,16.20
2023-01-26T06:17:42.288Z,17.40
2023-01-26T06:20:14.822Z,16.15
2023-01-26T06:22:47.784Z,15.98
2023-01-26T06:25:16.378Z,16.42
2023-01-26T06:27:44.024Z,18.13
2023-01-26T06:30:19.355Z,16.45
2023-01-26T06:32:47.843Z,13.77
2023-01-26T06:35:15.553Z,16.30
2023-01-26T06:37:44.129Z,16.95
2023-01-26T06:42:39.861Z,16.98
2023-01-26T06:45:08.357Z,16.98
2023-01-26T06:47:36.766Z,13.60
2023-01-26T06:50:05.515Z,19.55
2023-01-26T06:52:36.392Z,15.93
2023-01-26T06:55:38.371Z,17.70
2023-01-26T06:58:24.692Z,18.20
2023-01-26T07:01:04.695Z,15.35
2023-01-26T07:03:35.187Z,15.48
2023-01-26T07:06:02.864Z,15.77
2023-01-26T07:08:30.413Z,16.27
2023-01-26T07:10:57.849Z,18.10
2023-01-26T07:18:21.255Z,18.50
2023-01-26T07:20:48.696Z,17.70
2023-01-26T07:30:39.912Z,13.95
2023-01-26T07:33:07.574Z,8.63
2023-01-26T07:40:31.528Z,9.70
2023-01-26T07:43:01.928Z,12.25
2023-01-26T07:45:55.116Z,9.05
2023-01-26T07:48:24.554Z,7.53
2023-01-26T07:50:52.102Z,8.73
2023-01-26T07:55:47.559Z,12.82
2023-01-26T07:58:15.643Z,5.97
2023-01-26T08:00:43.124Z,12.50
2023-01-26T08:05:38.636Z,10.45
2023-01-26T08:08:06.584Z,8.35
2023-01-26T08:13:01.898Z,2.83
2023-01-26T08:15:29.619Z,9.40
2023-01-26T08:17:57.204Z,4.40
2023-01-26T08:20:24.736Z,5.80
2023-01-26T08:30:16.175Z,6.30
2023-01-26T08:32:43.783Z,6.40
2023-01-26T08:40:07.770Z,3.55
2023-01-26T08:42:35.297Z,3.00
2023-01-26T08:45:02.995Z,10.63
2023-01-26T08:47:30.537Z,5.60
2023-01-26T08:54:52.867Z,5.25
2023-01-26T08:57:20.680Z,7.07
2023-01-26T08:59:48.085Z,6.20
2023-01-26T09:04:42.955Z,4.18
2023-01-26T09:09:40.951Z,6.25
2023-01-26T09:12:08.541Z,12.23
2023-01-26T09:14:36.086Z,9.45
2023-01-26T09:17:03.726Z,8.57
2023-01-26T09:21:58.749Z,6.50
2023-01-26T09:26:53.914Z,10.98
2023-01-26T09:29:21.395Z,10.63
2023-01-26T09:31:49.058Z,10.48
2023-01-26T09:34:16.726Z,9.23
2023-01-26T09:36:44.374Z,5.22
2023-01-26T09:42:16.813Z,5.75
2023-01-26T09:44:52.587Z,10.07
2023-01-26T09:47:30.322Z,7.45
2023-01-26T09:50:11.149Z,8.55
2023-01-26T09:52:57.730Z,6.18
2023-01-26T09:55:25.556Z,8.40
2023-01-26T09:58:01.279Z,6.75
2023-01-26T10:00:36.719Z,9.57
2023-01-26T10:03:33.217Z,7.53
2023-01-26T10:06:29.150Z,6.68
2023-01-26T10:09:24.259Z,6.70
2023-01-26T10:11:56.537Z,7.60
2023-01-26T10:14:45.491Z,9.68
2023-01-26T10:17:31.113Z,11.13
2023-01-26T10:20:17.450Z,8.82
2023-01-26T10:22:47.913Z,9.10
2023-01-26T10:25:21.497Z,8.32
2023-01-26T10:27:48.984Z,4.45
2023-01-26T10:32:47.511Z,5.97
2023-01-26T10:35:25.865Z,11.95
2023-01-26T10:37:53.683Z,8.02
2023-01-26T10:40:21.812Z,6.13
2023-01-26T10:42:59.500Z,6.13
2023-01-26T10:45:33.090Z,6.97
2023-01-26T10:48:07.044Z,5.82
2023-01-26T10:50:35.162Z,11.90
2023-01-26T10:53:05.011Z,6.55
2023-01-26T10:55:36.448Z,6.88
2023-01-26T10:58:04.193Z,7.75
2023-01-26T11:00:34.555Z,8.65
2023-01-26T11:03:14.260Z,6.22
2023-01-26T11:05:43.591Z,6.53
2023-01-26T11:08:37.351Z,8.65
2023-01-26T11:11:08.093Z,19.33
2023-01-26T11:13:35.603Z,9.95
2023-01-26T11:19:00.837Z,15.02
2023-01-26T11:21:36.510Z,11.70
2023-01-26T11:24:05.148Z,12.65
2023-01-26T11:27:02.407Z,7.85
2023-01-26T11:29:30.336Z,7.15
2023-01-26T11:32:31.895Z,10.35
2023-01-26T11:34:59.387Z,10.23
2023-01-26T11:40:11.225Z,11.75
2023-01-26T11:43:01.375Z,11.95
2023-01-26T11:45:40.917Z,11.80
2023-01-26T11:48:33.403Z,11.73
2023-01-26T11:51:20.941Z,10.68
2023-01-26T11:54:28.933Z,8.15
2023-01-26T11:57:05.496Z,9.05
2023-01-26T11:59:47.127Z,12.73
2023-01-26T12:02:35.898Z,14.15
2023-01-26T12:05:26.231Z,7.68
2023-01-26T12:07:59.647Z,7.85
2023-01-26T12:10:36.765Z,13.50
2023-01-26T12:13:13.925Z,9.05
2023-01-26T12:15:47.833Z,16.58
2023-01-26T12:18:42.406Z,12.80
2023-01-26T12:21:20.527Z,12.02
2023-01-26T12:23:59.191Z,16.38
2023-01-26T12:26:32.363Z,16.88
2023-01-26T12:29:23.057Z,13.95
2023-01-26T12:31:56.388Z,14.20
2023-01-26T12:34:28.710Z,12.02
2023-01-26T12:37:30.067Z,12.20
2023-01-26T12:40:09.639Z,18.27
2023-01-26T12:42:52.371Z,10.32
2023-01-26T12:45:30.973Z,12.15
2023-01-26T12:48:07.691Z,12.90
2023-01-26T12:50:39.861Z,8.85
2023-01-26T12:53:24.395Z,12.73
2023-01-26T12:56:03.653Z,10.18
2023-01-26T12:58:38.113Z,11.10
2023-01-26T13:01:10.624Z,18.08
2023-01-26T13:03:46.115Z,11.07
2023-01-26T13:06:13.646Z,12.05
2023-01-26T13:09:04.487Z,11.48
2023-01-26T13:11:53.357Z,17.83
2023-01-26T13:14:36.763Z,10.95
2023-01-26T13:17:16.504Z,11.60
2023-01-26T13:19:44.152Z,15.98
2023-01-26T13:22:23.823Z,13.38
2023-01-26T13:24:59.631Z,14.82
2023-01-26T13:27:39.947Z,16.35
2023-01-26T13:30:26.131Z,17.95
2023-01-26T13:33:20.230Z,12.67
2023-01-26T13:35:50.283Z,12.57
2023-01-26T13:38:37.404Z,17.00
2023-01-26T13:41:09.614Z,12.57
2023-01-26T13:43:45.896Z,14.20
2023-01-26T13:46:34.169Z,10.60
2023-01-26T13:49:02.395Z,9.40
2023-01-26T13:51:32.020Z,11.60
2023-01-26T13:54:05.882Z,12.95
2023-01-26T13:56:41.800Z,14.95
2023-01-26T13:59:09.393Z,11.27
2023-01-26T14:01:48.618Z,15.55
2023-01-26T14:04:21.613Z,13.77
2023-01-26T14:07:10.167Z,14.13
2023-01-26T14:09:52.517Z,13.32
2023-01-26T14:12:27.589Z,9.55
2023-01-26T14:15:01.172Z,10.40
2023-01-26T14:17:34.284Z,14.57
2023-01-26T14:20:03.769Z,13.35
2023-01-26T14:22:31.334Z,9.05
2023-01-26T14:24:58.844Z,9.43
2023-01-26T14:29:53.943Z,13.02
2023-01-26T14:32:25.458Z,14.00
2023-01-26T14:34:54.748Z,9.02
2023-01-26T14:37:22.861Z,13.88
2023-01-26T14:40:10.336Z,8.52
2023-01-26T14:42:40.129Z,12.30
2023-01-26T14:45:13.508Z,13.23
2023-01-26T14:47:45.493Z,10.60
2023-01-26T14:50:23.437Z,9.88
2023-01-26T14:52:51.074Z,11.40
2023-01-26T14:55:30.645Z,13.15
2023-01-26T14:57:59.307Z,8.45
2023-01-26T15:00:31.412Z,11.65
2023-01-26T15:03:02.174Z,8.60
2023-01-26T15:05:42.356Z,11.68
2023-01-26T15:08:24.799Z,17.42
2023-01-26T15:11:19.831Z,11.18
2023-01-26T15:13:52.335Z,14.80
2023-01-26T15:16:23.151Z,9.35
2023-01-26T15:19:02.683Z,7.70
2023-01-26T15:21:40.212Z,11.88
2023-01-26T15:24:14.955Z,9.25
2023-01-26T15:26:43.813Z,12.05
2023-01-26T15:29:32.647Z,12.13
2023-01-26T15:32:00.711Z,13.48
2023-01-26T15:34:32.958Z,7.03
2023-01-26T15:37:01.925Z,9.20
2023-01-26T15:39:30.523Z,10.07
2023-01-26T15:42:07.886Z,12.50
2023-01-26T15:44:35.429Z,8.13
2023-01-26T15:49:34.074Z,7.65
2023-01-26T15:52:01.463Z,7.68
2023-01-26T16:01:50.688Z,14.63
2023-01-26T16:06:45.501Z,7.18
2023-01-26T16:11:47.794Z,9.10
2023-01-26T16:14:17.607Z,7.40
2023-01-26T16:16:45.237Z,13.05
2023-01-26T16:19:20.578Z,10.95
2023-01-26T16:21:54.039Z,10.90
2023-01-26T16:24:21.602Z,10.30
2023-01-26T16:26:51.351Z,12.05
2023-01-26T16:34:13.289Z,13.07
2023-01-26T16:41:35.692Z,8.10
2023-01-26T16:44:03.968Z,12.25
2023-01-26T16:46:32.294Z,11.02
2023-01-26T16:48:59.769Z,14.85
2023-01-26T16:51:30.880Z,8.52
2023-01-26T16:53:58.688Z,9.25
2023-01-26T16:56:26.116Z,8.90
2023-01-26T17:01:24.338Z,6.85
2023-01-26T17:03:52.246Z,12.43
2023-01-26T17:06:20.452Z,7.82
2023-01-26T17:08:49.213Z,10.23
2023-01-26T17:11:27.590Z,7.78
2023-01-26T17:13:56.885Z,7.53
2023-01-26T17:16:29.624Z,7.38
2023-01-26T17:18:57.338Z,8.82
2023-01-26T17:21:26.857Z,11.80
2023-01-26T17:23:57.559Z,7.22
2023-01-26T17:26:25.174Z,8.05
2023-01-26T17:28:56.480Z,7.50
2023-01-26T17:31:25.386Z,7.82
2023-01-26T17:33:54.632Z,13.65
2023-01-26T17:36:22.318Z,10.88
2023-01-26T17:38:49.739Z,14.25
2023-01-26T17:41:17.671Z,10.10
2023-01-26T17:43:45.505Z,7.25
2023-01-26T17:46:15.908Z,7.90
2023-01-26T17:48:45.315Z,8.05
2023-01-26T17:51:21.105Z,6.03
2023-01-26T17:53:54.304Z,8.93
2023-01-26T17:56:22.574Z,6.22
2023-01-26T17:58:52.101Z,10.07
2023-01-26T18:01:21.796Z,9.77
2023-01-26T18:03:49.903Z,5.85
2023-01-26T18:06:17.854Z,6.35
2023-01-26T18:08:45.796Z,8.10
2023-01-26T18:11:15.099Z,2.85
2023-01-26T18:13:43.123Z,6.93
2023-01-26T18:16:15.074Z,9.13
2023-01-26T18:18:42.786Z,8.55
2023-01-26T18:21:22.727Z,10.00
2023-01-26T18:23:52.558Z,7.85
2023-01-26T18:26:22.775Z,11.43
2023-01-26T18:28:50.756Z,12.90
2023-01-26T18:31:23.203Z,10.68
2023-01-26T18:33:50.936Z,13.55
2023-01-26T18:36:20.576Z,11.02
2023-01-26T18:38:53.797Z,9.13
2023-01-26T18:41:23.221Z,8.75
2023-01-26T18:43:52.179Z,14.15
2023-01-26T18:46:20.845Z,4.47
2023-01-26T18:48:48.531Z,10.70
2023-01-26T18:51:18.314Z,6.20
2023-01-26T18:53:45.809Z,5.55
2023-01-26T18:56:16.312Z,8.82
2023-01-26T18:58:44.119Z,8.82
2023-01-26T19:01:14.604Z,9.70
2023-01-26T19:03:47.451Z,8.20
2023-01-26T19:06:20.120Z,7.38
2023-01-26T19:08:55.503Z,10.18
2023-01-26T19:11:23.029Z,16.35
2023-01-26T19:16:17.798Z,13.80
2023-01-26T19:21:12.700Z,12.13
2023-01-26T19:23:42.670Z,10.75
2023-01-26T19:26:15.365Z,11.60
2023-01-26T19:28:42.960Z,10.27
2023-01-26T19:31:11.069Z,7.28
2023-01-26T19:33:39.318Z,12.65
2023-01-26T19:36:07.990Z,12.13
2023-01-26T19:38:39.347Z,8.00
2023-01-26T19:41:07.066Z,10.88
2023-01-26T19:43:34.531Z,10.57
2023-01-26T19:48:30.180Z,10.95
2023-01-26T19:53:27.936Z,8.18
2023-01-26T19:55:55.453Z,9.95
2023-01-26T20:05:46.479Z,7.22
2023-01-26T20:08:13.924Z,8.38
2023-01-26T20:15:36.828Z,11.93
2023-01-26T20:18:04.416Z,8.82
2023-01-26T20:20:31.988Z,4.07
2023-01-26T20:25:27.664Z,7.97
2023-01-26T20:27:55.151Z,9.18
2023-01-26T20:30:23.043Z,11.05
2023-01-26T20:32:53.985Z,4.25
2023-01-26T20:35:21.783Z,5.35
2023-01-26T20:37:49.259Z,5.90
2023-01-26T20:40:16.821Z,8.75
2023-01-26T20:47:41.050Z,8.60
2023-01-26T20:50:09.427Z,8.85
2023-01-26T20:52:37.422Z,6.10
2023-01-26T20:55:08.137Z,7.55
2023-01-26T20:57:35.664Z,4.80
2023-01-26T21:02:30.716Z,9.48
2023-01-26T21:07:28.288Z,4.07
2023-01-26T21:09:55.880Z,5.65
2023-01-26T21:12:23.376Z,14.98
2023-01-26T21:17:22.523Z,9.85
2023-01-26T21:19:50.155Z,10.68
2023-01-26T21:22:17.611Z,11.45
2023-01-26T21:27:12.441Z,7.55
2023-01-26T21:32:08.499Z,7.15
2023-01-26T21:34:36.052Z,10.77
2023-01-26T21:39:30.852Z,8.43
2023-01-26T21:44:29.159Z,7.85
2023-01-26T21:47:03.035Z,10.98
2023-01-26T21:49:30.762Z,9.93
2023-01-26T21:52:16.899Z,7.97
2023-01-26T21:54:44.336Z,9.77
2023-01-26T21:57:30.725Z,4.72
2023-01-26T21:59:58.236Z,6.47
2023-01-26T22:09:47.499Z,13.80
2023-01-26T22:12:15.599Z,9.93
2023-01-26T22:14:43.096Z,11.57
2023-01-26T22:22:05.409Z,6.30
2023-01-26T22:24:32.880Z,5.72
2023-01-26T22:31:54.899Z,7.60
2023-01-26T22:34:22.597Z,6.50
2023-01-26T22:36:50.009Z,6.57
2023-01-26T22:41:45.461Z,7.10
2023-01-26T22:44:12.919Z,9.55
2023-01-26T22:46:40.396Z,10.10
2023-01-26T22:51:38.340Z,9.20
2023-01-26T22:54:06.297Z,7.32
2023-01-26T22:56:34.430Z,6.78
2023-01-26T23:01:32.259Z,7.10
2023-01-26T23:04:00.789Z,6.75
2023-01-26T23:06:29.008Z,5.30
2023-01-26T23:08:58.387Z,10.20
2023-01-26T23:11:28.567Z,6.47
2023-01-26T23:13:58.994Z,6.47
2023-01-26T23:16:27.314Z,7.65
2023-01-26T23:18:57.166Z,6.35
2023-01-26T23:21:26.041Z,12.02
2023-01-26T23:23:53.515Z,21.65
2023-01-26T23:26:21.347Z,12.27
2023-01-26T23:28:49.084Z,10.88
2023-01-26T23:31:18.268Z,9.32
2023-01-26T23:33:46.532Z,13.35
2023-01-26T23:36:15.106Z,11.98
2023-01-26T23:38:43.941Z,14.38
2023-01-26T23:41:12.202Z,12.57
2023-01-26T23:43:40.368Z,10.13
2023-01-26T23:46:08.853Z,14.80
2023-01-26T23:48:36.293Z,8.27
2023-01-26T23:53:35.374Z,10.57
2023-01-26T23:56:28.962Z,10.35
2023-01-26T23:58:56.401Z,17.33
